Time;durP1;ratioP1;P1;durP2;ratioP2;P2;SDS_P1;SDS_P2;PMS_P1;PMS_P2;Temp;Humidity;BMP_temperature;BMP_pressure;BME280_temperature;BME280_humidity;BME280_pressure;Samples;Min_cycle;Max_cycle;Signal;HPM_P1;HPM_P2
2022/04/24 00:00:08;;;;;;;0.50;0.50;;;;;;;13.84;100.00;94885.13;5133929;27;20509;-50
2022/04/24 00:02:36;;;;;;;0.40;0.20;;;;;;;13.75;100.00;94894.16;5134200;27;20421;-50
2022/04/24 00:05:06;;;;;;;0.60;0.60;;;;;;;13.25;100.00;94890.66;5133750;27;20431;-50
2022/04/24 00:07:34;;;;;;;0.30;0.20;;;;;;;13.33;100.00;94890.72;5133579;27;20454;-50
2022/04/24 00:10:05;;;;;;;1.03;1.03;;;;;;;12.48;100.00;94906.34;5133776;27;20983;-50
2022/04/24 00:12:34;;;;;;;0.37;0.27;;;;;;;12.56;100.00;94899.56;5133792;27;21112;-50
2022/04/24 00:15:02;;;;;;;0.40;0.30;;;;;;;12.55;100.00;94901.44;5133428;27;20431;-50
2022/04/24 00:17:31;;;;;;;0.70;0.40;;;;;;;12.31;100.00;94898.09;5133682;27;20497;-50
2022/04/24 00:19:59;;;;;;;6.50;0.53;;;;;;;12.27;100.00;94896.31;5133640;27;20429;-50
2022/04/24 00:22:27;;;;;;;0.40;0.30;;;;;;;12.83;100.00;94896.97;5132868;27;20874;-50
2022/04/24 00:24:56;;;;;;;0.30;0.20;;;;;;;13.09;100.00;94905.31;5133784;27;20529;-50
2022/04/24 00:27:26;;;;;;;0.40;0.30;;;;;;;13.13;100.00;94901.75;5133680;27;20466;-51
2022/04/24 00:29:54;;;;;;;0.40;0.30;;;;;;;13.28;100.00;94900.69;5133739;27;20422;-50
2022/04/24 00:32:23;;;;;;;2.10;0.40;;;;;;;13.35;100.00;94901.88;5133638;27;20502;-50
2022/04/24 00:34:51;;;;;;;0.40;0.20;;;;;;;13.52;100.00;94895.94;5133260;27;20885;-50
2022/04/24 00:37:19;;;;;;;0.40;0.30;;;;;;;13.52;100.00;94898.59;5133246;27;20950;-50
2022/04/24 00:39:48;;;;;;;0.30;0.20;;;;;;;13.60;100.00;94905.13;5133427;27;20450;-50
2022/04/24 00:42:18;;;;;;;0.30;0.20;;;;;;;13.60;100.00;94902.44;5132476;27;20478;-50
2022/04/24 00:44:48;;;;;;;0.70;0.70;;;;;;;13.59;100.00;94906.19;5132920;27;20493;-50
2022/04/24 00:47:19;;;;;;;1.70;1.43;;;;;;;13.63;100.00;94907.97;5133037;27;21036;-50
2022/04/24 00:49:47;;;;;;;0.30;0.20;;;;;;;13.63;100.00;94896.53;5133066;27;20476;-50
2022/04/24 00:52:16;;;;;;;0.30;0.20;;;;;;;13.40;100.00;94897.53;5133055;27;20514;-50
2022/04/24 00:54:44;;;;;;;0.40;0.30;;;;;;;13.55;100.00;94905.22;5133356;27;20451;-50
2022/04/24 00:57:13;;;;;;;0.40;0.30;;;;;;;13.52;100.00;94911.13;5132952;27;20521;-50
2022/04/24 00:59:42;;;;;;;0.30;0.20;;;;;;;13.31;100.00;94913.41;5132862;27;20923;-50
2022/04/24 01:02:11;;;;;;;0.30;0.20;;;;;;;13.31;100.00;94905.41;5133031;27;20450;-50
2022/04/24 01:04:40;;;;;;;0.30;0.20;;;;;;;13.25;100.00;94904.75;5133135;27;20451;-50
2022/04/24 01:07:10;;;;;;;0.30;0.20;;;;;;;12.96;100.00;94900.72;5132773;27;20478;-50
2022/04/24 01:09:38;;;;;;;0.30;0.23;;;;;;;12.65;100.00;94911.09;5132755;28;20928;-50
2022/04/24 01:12:08;;;;;;;1.33;1.33;;;;;;;12.84;100.00;94916.38;5132858;28;20476;-50
2022/04/24 01:14:37;;;;;;;1.53;0.40;;;;;;;12.85;100.00;94908.09;5133121;27;20509;-51
2022/04/24 01:17:07;;;;;;;0.93;0.53;;;;;;;12.88;100.00;94914.69;5136928;27;20912;-51
2022/04/24 01:19:37;;;;;;;0.33;0.27;;;;;;;13.03;100.00;94909.91;5136934;27;20521;-51
2022/04/24 01:22:07;;;;;;;0.30;0.20;;;;;;;13.11;100.00;94908.47;5137340;27;20446;-49
2022/04/24 01:24:35;;;;;;;0.40;0.30;;;;;;;13.04;100.00;94913.34;5136887;27;20521;-51
2022/04/24 01:27:05;;;;;;;0.47;0.30;;;;;;;13.07;100.00;94896.84;5136628;27;20478;-50
2022/04/24 01:29:33;;;;;;;0.30;0.30;;;;;;;13.22;100.00;94902.66;5137183;27;20841;-50
2022/04/24 01:32:01;;;;;;;0.37;0.27;;;;;;;13.28;100.00;94900.69;5136769;27;20478;-50
2022/04/24 01:34:30;;;;;;;0.40;0.30;;;;;;;13.27;100.00;94902.56;5136165;27;20513;-50
2022/04/24 01:36:58;;;;;;;0.40;0.30;;;;;;;13.00;100.00;94894.53;5136943;27;20477;-50
2022/04/24 01:39:28;;;;;;;2.30;0.77;;;;;;;13.06;100.00;94905.84;5136699;27;20450;-50
2022/04/24 01:41:57;;;;;;;0.40;0.30;;;;;;;13.06;100.00;94912.00;5136566;27;20457;-50
2022/04/24 01:44:25;;;;;;;0.40;0.40;;;;;;;12.96;100.00;94893.53;5136433;27;20557;-50
2022/04/24 01:46:53;;;;;;;0.30;0.30;;;;;;;13.15;100.00;94925.44;5136425;27;20462;-51
2022/04/24 01:49:22;;;;;;;0.30;0.20;;;;;;;13.13;100.00;94919.63;5136815;27;20915;-49
2022/04/24 01:51:50;;;;;;;0.40;0.40;;;;;;;13.13;100.00;94922.28;5136633;27;20855;-50
2022/04/24 01:54:19;;;;;;;0.30;0.20;;;;;;;12.99;100.00;94926.75;5136150;27;20414;-50
2022/04/24 01:56:48;;;;;;;0.30;0.20;;;;;;;13.04;100.00;94929.31;5135902;27;20568;-50
2022/04/24 01:59:17;;;;;;;0.30;0.20;;;;;;;13.02;100.00;94923.50;5135859;27;20482;-51
2022/04/24 02:01:45;;;;;;;0.37;0.27;;;;;;;13.04;100.00;94929.31;5136537;27;20478;-50
2022/04/24 02:04:14;;;;;;;0.40;0.30;;;;;;;13.02;100.00;94936.81;5136328;27;20423;-50
2022/04/24 02:06:42;;;;;;;0.73;0.73;;;;;;;12.17;100.00;94939.75;5136318;27;20546;-50
2022/04/24 02:09:11;;;;;;;0.40;0.40;;;;;;;11.39;100.00;94948.16;5135661;27;20419;-50
2022/04/24 02:11:39;;;;;;;0.30;0.20;;;;;;;10.91;100.00;94929.84;5135990;27;20513;-50
2022/04/24 02:14:09;;;;;;;1.40;1.40;;;;;;;10.44;100.00;94843.91;5135910;27;20461;-50
2022/04/24 02:16:37;;;;;;;0.33;0.23;;;;;;;11.41;100.00;94945.22;5135871;27;20434;-50
2022/04/24 02:19:06;;;;;;;0.30;0.20;;;;;;;11.59;100.00;94952.44;5136044;27;20848;-50
2022/04/24 02:21:34;;;;;;;0.77;0.30;;;;;;;11.17;100.00;94955.84;5135712;27;20450;-50
2022/04/24 02:24:02;;;;;;;0.50;0.50;;;;;;;11.52;100.00;94957.31;5135956;27;20501;-50
2022/04/24 02:26:32;;;;;;;0.30;0.20;;;;;;;11.64;100.00;94956.94;5135672;27;20884;-50
2022/04/24 02:29:00;;;;;;;0.30;0.20;;;;;;;12.07;100.00;94956.63;5135593;27;20517;-50
2022/04/24 02:31:30;;;;;;;0.30;0.20;;;;;;;11.97;100.00;94953.31;5135467;27;20466;-50
2022/04/24 02:33:58;;;;;;;0.33;0.27;;;;;;;12.09;100.00;94953.72;5135664;27;20438;-50
2022/04/24 02:36:26;;;;;;;0.30;0.20;;;;;;;12.03;100.00;94952.19;5135785;27;20448;-50
2022/04/24 02:38:55;;;;;;;0.30;0.20;;;;;;;12.18;100.00;94951.97;5135540;27;20450;-50
2022/04/24 02:41:23;;;;;;;0.30;0.20;;;;;;;12.21;100.00;94954.06;5135519;27;20963;-50
2022/04/24 02:43:52;;;;;;;0.40;0.40;;;;;;;12.28;100.00;94959.78;5135216;27;20509;-50
2022/04/24 02:46:20;;;;;;;0.30;0.20;;;;;;;12.17;100.00;94961.00;5135416;27;20446;-50
2022/04/24 02:48:50;;;;;;;0.40;0.30;;;;;;;12.07;100.00;94956.63;5135668;27;20488;-50
2022/04/24 02:51:19;;;;;;;0.30;0.20;;;;;;;12.18;100.00;94959.94;5135326;27;20966;-51
2022/04/24 02:53:47;;;;;;;0.40;0.30;;;;;;;12.21;100.00;94970.00;5135256;27;20928;-50
2022/04/24 02:56:16;;;;;;;2.93;0.90;;;;;;;12.34;100.00;94963.97;5135280;27;21003;-50
2022/04/24 02:58:45;;;;;;;0.30;0.20;;;;;;;12.34;100.00;94958.66;5135169;27;20460;-51
2022/04/24 03:01:13;;;;;;;0.30;0.20;;;;;;;12.26;100.00;94967.28;5135125;27;20463;-50
2022/04/24 03:03:42;;;;;;;0.30;0.20;;;;;;;12.29;100.00;94965.91;5135026;27;20473;-50
2022/04/24 03:06:13;;;;;;;9.07;0.40;;;;;;;12.10;100.00;94973.88;5135259;27;20430;-50
2022/04/24 03:08:42;;;;;;;0.53;0.47;;;;;;;12.09;100.00;94959.78;5134336;27;20530;-50
2022/04/24 03:11:10;;;;;;;0.30;0.20;;;;;;;12.22;100.00;94974.22;5135153;27;20502;-50
2022/04/24 03:13:38;;;;;;;0.30;0.30;;;;;;;12.10;100.00;94979.19;5135087;27;20446;-50
2022/04/24 03:16:07;;;;;;;0.60;0.60;;;;;;;11.81;100.00;94983.81;5135082;27;20461;-50
2022/04/24 03:18:35;;;;;;;0.30;0.20;;;;;;;11.32;100.00;94984.88;5134805;27;20505;-50
2022/04/24 03:21:04;;;;;;;0.40;0.30;;;;;;;10.61;100.00;94894.63;5134210;27;20462;-50
2022/04/24 03:23:34;;;;;;;0.30;0.30;;;;;;;11.44;100.00;94997.72;5134885;27;20817;-50
2022/04/24 03:26:02;;;;;;;0.50;0.50;;;;;;;11.54;100.00;94997.63;5134850;27;20525;-50
2022/04/24 03:28:30;;;;;;;0.50;0.50;;;;;;;10.91;100.00;94969.63;5134712;27;20469;-50
2022/04/24 03:30:59;;;;;;;0.47;0.47;;;;;;;10.75;100.00;95006.84;5134488;27;20454;-50
2022/04/24 03:33:27;;;;;;;0.40;0.30;;;;;;;10.89;100.00;95007.03;5134437;27;20462;-50
2022/04/24 03:35:56;;;;;;;0.53;0.53;;;;;;;10.87;100.00;95003.06;5134407;27;20544;-50
2022/04/24 03:38:24;;;;;;;0.50;0.30;;;;;;;10.99;100.00;95014.88;5133557;27;20477;-50
2022/04/24 03:40:54;;;;;;;1.50;1.07;;;;;;;11.09;100.00;95014.81;5134510;27;20498;-50
2022/04/24 03:43:23;;;;;;;0.30;0.20;;;;;;;11.31;100.00;95025.72;5133965;27;20487;-50
2022/04/24 03:45:51;;;;;;;2.17;1.57;;;;;;;11.39;100.00;95026.97;5134122;27;21024;-50
2022/04/24 03:48:20;;;;;;;0.67;0.40;;;;;;;11.22;100.00;95024.75;5134317;27;20473;-50
2022/04/24 03:50:48;;;;;;;1.00;0.60;;;;;;;11.37;100.00;95024.63;5134386;27;20414;-51
2022/04/24 03:53:18;;;;;;;0.40;0.30;;;;;;;11.08;100.00;95018.50;5134143;27;20499;-51
2022/04/24 03:55:46;;;;;;;3.80;1.80;;;;;;;11.01;100.00;95028.66;5134275;27;20491;-51
2022/04/24 03:58:18;;;;;;;0.37;0.30;;;;;;;10.79;100.00;95029.09;5133823;27;21017;-51
2022/04/24 04:00:46;;;;;;;1.03;1.03;;;;;;;10.91;100.00;95025.28;5133084;27;20418;-51
2022/04/24 04:03:16;;;;;;;0.37;0.30;;;;;;;10.68;100.00;95029.44;5133772;27;20499;-51
2022/04/24 04:05:45;;;;;;;6.03;3.03;;;;;;;10.40;100.00;95035.50;5133778;27;20422;-50
2022/04/24 04:08:13;;;;;;;1.67;1.37;;;;;;;10.25;100.00;95040.84;5133195;27;20565;-50
2022/04/24 04:10:41;;;;;;;1.67;1.57;;;;;;;10.46;100.00;95029.06;5133393;27;20451;-51
2022/04/24 04:13:10;;;;;;;0.40;0.30;;;;;;;10.55;100.00;95038.03;5132424;27;20469;-51
2022/04/24 04:15:39;;;;;;;1.80;1.47;;;;;;;10.81;100.00;95034.13;5133491;27;20455;-51
2022/04/24 04:18:08;;;;;;;4.77;0.60;;;;;;;10.70;100.00;95030.75;5133637;27;20418;-50
2022/04/24 04:20:36;;;;;;;1.23;1.13;;;;;;;10.87;100.00;95035.69;5133052;27;20481;-50
2022/04/24 04:23:05;;;;;;;1.50;1.50;;;;;;;11.23;100.00;95038.81;5133091;27;20991;-50
2022/04/24 04:25:33;;;;;;;1.17;0.50;;;;;;;11.49;100.00;95038.28;5132970;27;20426;-51
2022/04/24 04:28:02;;;;;;;2.83;0.73;;;;;;;11.71;100.00;95037.03;5133113;27;20574;-50
2022/04/24 04:30:30;;;;;;;3.90;0.90;;;;;;;11.77;100.00;95035.88;5133130;27;20422;-50
2022/04/24 04:33:00;;;;;;;1.70;1.63;;;;;;;11.85;100.00;95035.28;5133420;27;20518;-50
2022/04/24 04:35:28;;;;;;;1.03;1.03;;;;;;;11.82;100.00;95035.84;5133035;27;20513;-50
2022/04/24 04:37:57;;;;;;;0.50;0.50;;;;;;;11.64;100.00;95039.22;5132612;27;20426;-50
2022/04/24 04:40:26;;;;;;;0.40;0.30;;;;;;;11.61;100.00;95037.13;5133343;27;20438;-50
2022/04/24 04:42:55;;;;;;;0.93;0.93;;;;;;;11.84;100.00;95031.81;5132908;27;20505;-50
2022/04/24 04:45:24;;;;;;;0.63;0.60;;;;;;;12.00;100.00;95027.91;5133214;27;20517;-51
2022/04/24 04:47:53;;;;;;;1.73;1.00;;;;;;;12.37;100.00;95039.69;5133193;27;20468;-49
2022/04/24 04:50:23;;;;;;;2.57;0.77;;;;;;;12.61;100.00;95037.72;5132267;27;20489;-50
2022/04/24 04:52:51;;;;;;;0.70;0.70;;;;;;;12.66;100.00;95041.09;5132862;27;20422;-49
2022/04/24 04:55:19;;;;;;;1.33;0.60;;;;;;;12.43;100.00;95031.34;5132821;27;21003;-50
2022/04/24 04:57:48;;;;;;;0.40;0.40;;;;;;;12.54;100.00;95043.41;5132605;27;20430;-49
2022/04/24 05:00:18;;;;;;;0.60;0.60;;;;;;;12.51;100.00;95048.50;5133110;27;20473;-49
2022/04/24 05:02:46;;;;;;;0.80;0.80;;;;;;;12.02;100.00;95046.22;5132814;27;20517;-50
2022/04/24 05:05:15;;;;;;;0.60;0.50;;;;;;;12.20;100.00;95042.81;5132722;27;20578;-50
2022/04/24 05:07:45;;;;;;;0.53;0.47;;;;;;;12.60;100.00;95044.09;5132572;27;20995;-50
2022/04/24 05:10:14;;;;;;;1.53;1.43;;;;;;;12.50;100.00;95039.72;5132550;28;20466;-50
2022/04/24 05:12:42;;;;;;;3.00;1.10;;;;;;;12.65;100.00;95039.50;5132716;28;20848;-50
2022/04/24 05:15:13;;;;;;;1.07;0.60;;;;;;;12.69;100.00;95045.06;5132701;28;20892;-55
2022/04/24 05:17:43;;;;;;;1.17;1.07;;;;;;;12.50;100.00;95041.59;5132098;28;20454;-49
2022/04/24 05:20:12;;;;;;;0.67;0.67;;;;;;;12.53;100.00;95047.13;5132770;28;20502;-49
2022/04/24 05:22:42;;;;;;;0.87;0.80;;;;;;;12.57;100.00;95045.47;5132881;28;20434;-51
2022/04/24 05:25:12;;;;;;;0.37;0.30;;;;;;;12.79;100.00;95036.94;5132519;28;20442;-50
2022/04/24 05:27:41;;;;;;;1.00;1.00;;;;;;;12.85;100.00;95042.97;5132579;28;20426;-50
2022/04/24 05:30:10;;;;;;;0.63;0.57;;;;;;;13.20;100.00;95039.75;5132675;28;20556;-50
2022/04/24 05:32:40;;;;;;;0.70;0.63;;;;;;;13.01;100.00;95037.09;5132861;28;20514;-50
2022/04/24 05:35:09;;;;;;;0.60;0.60;;;;;;;13.14;100.00;95035.59;5132431;28;20505;-49
2022/04/24 05:37:38;;;;;;;0.50;0.50;;;;;;;13.70;100.00;95036.19;5132312;28;20427;-50
2022/04/24 05:40:08;;;;;;;0.40;0.40;;;;;;;13.71;100.00;95050.31;5132449;28;20510;-50
2022/04/24 05:42:45;;;;;;;0.47;0.43;;;;;;;13.56;100.00;94973.38;5132146;28;20474;-50
2022/04/24 05:45:15;;;;;;;0.50;0.50;;;;;;;14.08;100.00;95036.00;5132422;28;20424;-50
2022/04/24 05:47:44;;;;;;;2.63;2.43;;;;;;;14.14;100.00;95034.81;5132376;28;20476;-50
2022/04/24 05:50:12;;;;;;;0.87;0.60;;;;;;;14.38;100.00;95028.19;5132336;28;21054;-49
2022/04/24 05:52:41;;;;;;;0.40;0.30;;;;;;;14.89;100.00;95027.03;5132328;28;20529;-50
2022/04/24 05:55:10;;;;;;;0.40;0.40;;;;;;;15.36;100.00;95025.63;5132279;28;20483;-50
2022/04/24 05:57:40;;;;;;;0.60;0.50;;;;;;;15.40;100.00;95021.25;5132237;28;20427;-50
2022/04/24 06:00:11;;;;;;;1.43;0.50;;;;;;;15.45;95.92;95024.63;5132250;28;20992;-50
2022/04/24 06:02:40;;;;;;;0.83;0.53;;;;;;;16.02;89.73;95016.66;5135097;27;20422;-49
2022/04/24 06:05:10;;;;;;;0.60;0.40;;;;;;;16.12;88.10;95014.50;5136515;27;20442;-50
2022/04/24 06:07:39;;;;;;;0.53;0.37;;;;;;;16.35;87.51;95015.16;5136008;27;20487;-50
2022/04/24 06:10:09;;;;;;;0.87;0.80;;;;;;;15.67;89.78;95016.53;5135955;27;20470;-50
2022/04/24 06:12:50;;;;;;;4.83;1.37;;;;;;;15.81;89.63;95017.22;5136235;27;20445;-50
2022/04/24 06:15:21;;;;;;;0.97;0.50;;;;;;;15.53;92.16;95009.72;5136158;27;20422;-50
2022/04/24 06:17:53;;;;;;;6.67;0.83;;;;;;;16.51;87.07;95008.28;5135814;27;20426;-50
2022/04/24 06:20:22;;;;;;;0.67;0.60;;;;;;;16.20;85.64;94978.97;5135767;27;20430;-50
2022/04/24 06:22:52;;;;;;;0.90;0.70;;;;;;;16.36;87.01;95000.72;5134915;27;20461;-51
2022/04/24 06:25:23;;;;;;;1.57;1.57;;;;;;;16.61;88.25;95017.91;5135840;27;20838;-50
2022/04/24 06:27:54;;;;;;;1.10;1.00;;;;;;;16.67;86.46;94987.22;5135601;27;20422;-50
2022/04/24 06:30:24;;;;;;;0.40;0.30;;;;;;;16.95;84.87;95021.38;5135157;27;20510;-50
2022/04/24 06:32:55;;;;;;;0.70;0.70;;;;;;;17.50;82.68;95015.31;5135031;27;20421;-51
2022/04/24 06:35:24;;;;;;;0.50;0.33;;;;;;;18.20;74.58;94963.75;5133794;27;20433;-50
2022/04/24 06:37:55;;;;;;;0.40;0.30;;;;;;;18.52;72.02;94989.94;5133816;27;20446;-51
2022/04/24 06:40:25;;;;;;;5.23;0.73;;;;;;;19.23;67.67;95013.97;5133454;27;20517;-51
2022/04/24 06:42:57;;;;;;;2.33;0.97;;;;;;;19.42;65.82;94993.59;5133402;27;20470;-49
2022/04/24 06:45:28;;;;;;;0.40;0.33;;;;;;;18.74;64.68;95013.78;5133448;27;20423;-50
2022/04/24 06:47:59;;;;;;;0.40;0.40;;;;;;;18.91;63.60;95013.66;5134469;27;20473;-50
2022/04/24 06:50:28;;;;;;;1.30;0.47;;;;;;;19.53;60.97;95010.09;5135178;27;20494;-51
2022/04/24 06:52:58;;;;;;;8.40;1.30;;;;;;;19.34;62.45;95004.41;5135277;27;20860;-51
2022/04/24 06:55:27;;;;;;;0.53;0.53;;;;;;;20.30;56.84;95003.00;5135064;27;20968;-51
2022/04/24 06:57:57;;;;;;;0.50;0.50;;;;;;;19.74;57.26;95000.03;5134995;27;20452;-51
2022/04/24 07:00:27;;;;;;;0.50;0.40;;;;;;;20.68;54.35;95001.50;5134964;27;20442;-51
2022/04/24 07:03:16;;;;;;;0.87;0.87;;;;;;;20.80;51.18;94966.44;5134868;27;20827;-51
2022/04/24 07:05:44;;;;;;;0.40;0.30;;;;;;;21.40;48.70;95003.16;5134879;27;20433;-52
2022/04/24 07:08:13;;;;;;;0.40;0.20;;;;;;;21.43;50.36;94997.06;5135065;27;20498;-52
2022/04/24 07:10:41;;;;;;;0.40;0.40;;;;;;;21.75;50.38;94991.75;5134999;27;20549;-52
2022/04/24 07:13:11;;;;;;;0.40;0.33;;;;;;;22.01;46.67;94986.66;5133601;27;20441;-52
2022/04/24 07:15:40;;;;;;;1.23;1.23;;;;;;;21.38;47.41;94986.53;5134938;27;20506;-52
2022/04/24 07:18:10;;;;;;;0.70;0.70;;;;;;;21.61;48.76;94942.81;5134933;27;20414;-53
2022/04/24 07:20:39;;;;;;;1.33;0.30;;;;;;;22.64;45.15;94982.72;5134330;27;20427;-53
2022/04/24 07:23:08;;;;;;;1.17;0.87;;;;;;;22.63;44.39;94951.44;5134564;27;20788;-53
2022/04/24 07:25:40;;;;;;;0.70;0.50;;;;;;;22.87;42.89;94976.63;5134415;27;20426;-54
2022/04/24 07:28:09;;;;;;;0.70;0.70;;;;;;;23.69;42.27;94977.84;5134591;27;20419;-54
2022/04/24 07:30:40;;;;;;;0.40;0.30;;;;;;;23.55;40.00;94941.66;5134254;27;20900;-54
2022/04/24 07:33:08;;;;;;;0.50;0.40;;;;;;;23.27;40.77;94979.75;5134314;27;20439;-54
2022/04/24 07:35:39;;;;;;;0.77;0.70;;;;;;;23.66;41.09;94970.44;5134291;27;20419;-55
2022/04/24 07:38:08;;;;;;;1.43;1.33;;;;;;;22.57;41.31;94933.13;5134686;27;20422;-54
2022/04/24 07:40:39;;;;;;;0.70;0.60;;;;;;;23.31;41.51;94986.78;5134166;27;20434;-55
2022/04/24 07:43:09;;;;;;;0.50;0.50;;;;;;;22.05;41.59;94806.69;5133328;27;20469;-54
2022/04/24 07:45:40;;;;;;;0.40;0.30;;;;;;;22.91;41.66;94969.38;5133354;27;20525;-55
2022/04/24 07:48:10;;;;;;;1.20;0.97;;;;;;;22.78;42.10;94982.25;5133368;27;20454;-54
2022/04/24 07:50:41;;;;;;;1.10;1.00;;;;;;;23.48;42.29;94952.34;5133245;27;20462;-55
2022/04/24 07:53:10;;;;;;;1.10;0.70;;;;;;;23.72;42.77;94971.72;5133807;27;20446;-54
2022/04/24 07:55:41;;;;;;;0.50;0.50;;;;;;;24.16;43.04;94961.25;5133771;27;20474;-54
2022/04/24 07:58:10;;;;;;;0.40;0.30;;;;;;;24.49;40.90;94966.78;5134250;27;20439;-54
2022/04/24 08:00:41;;;;;;;0.67;0.63;;;;;;;23.98;40.51;94960.94;5133895;27;20840;-54
2022/04/24 08:03:10;;;;;;;12.13;1.13;;;;;;;23.73;40.92;94961.69;5133761;27;20517;-54
2022/04/24 08:05:41;;;;;;;0.40;0.30;;;;;;;23.98;40.52;94962.88;5133776;27;20418;-54
2022/04/24 08:08:11;;;;;;;0.50;0.50;;;;;;;23.76;39.45;94950.91;5133729;27;20908;-54
2022/04/24 08:10:43;;;;;;;0.40;0.30;;;;;;;23.43;40.01;94960.78;5133847;27;20985;-54
2022/04/24 08:13:12;;;;;;;0.80;0.80;;;;;;;23.83;38.66;94959.13;5133781;27;20501;-54
2022/04/24 08:15:44;;;;;;;0.83;0.83;;;;;;;25.09;36.84;94954.06;5133950;27;20414;-54
2022/04/24 08:18:13;;;;;;;0.57;0.50;;;;;;;25.77;37.46;94955.56;5133677;27;20476;-55
2022/04/24 08:20:44;;;;;;;0.40;0.30;;;;;;;26.17;37.54;94944.66;5133580;27;20844;-54
2022/04/24 08:23:15;;;;;;;0.50;0.30;;;;;;;25.17;37.26;94917.69;5133389;27;20924;-54
2022/04/24 08:25:44;;;;;;;1.00;0.50;;;;;;;25.65;40.46;94950.41;5133128;27;20427;-53
2022/04/24 08:28:14;;;;;;;2.07;1.90;;;;;;;26.61;35.41;94930.19;5133326;27;20430;-54
2022/04/24 08:30:45;;;;;;;6.10;0.70;;;;;;;25.58;37.00;94937.53;5133086;27;21021;-54
2022/04/24 08:33:15;;;;;;;0.60;0.50;;;;;;;25.37;38.29;94942.72;5133174;27;20411;-54
2022/04/24 08:35:46;;;;;;;0.57;0.40;;;;;;;26.23;36.57;94937.72;5133437;27;20422;-54
2022/04/24 08:38:15;;;;;;;0.60;0.30;;;;;;;27.03;33.29;94909.44;5133188;27;20439;-54
2022/04/24 08:40:44;;;;;;;0.40;0.30;;;;;;;27.94;33.22;94926.34;5133002;27;20491;-54
2022/04/24 08:43:14;;;;;;;0.70;0.40;;;;;;;26.64;34.22;94915.84;5132751;27;20493;-53
2022/04/24 08:45:44;;;;;;;0.50;0.50;;;;;;;27.52;35.83;94910.75;5132986;27;20431;-53
2022/04/24 08:48:13;;;;;;;2.07;0.40;;;;;;;28.32;33.30;94901.03;5133390;27;20426;-55
2022/04/24 08:50:42;;;;;;;0.30;0.30;;;;;;;28.06;33.46;94906.91;5132814;27;20466;-55
2022/04/24 08:53:14;;;;;;;0.30;0.20;;;;;;;28.53;31.51;94901.00;5133321;27;20450;-53
2022/04/24 08:55:44;;;;;;;0.53;0.40;;;;;;;27.17;32.37;94905.22;5132879;27;20460;-54
2022/04/24 08:58:13;;;;;;;0.40;0.30;;;;;;;27.68;31.54;94832.97;5132936;27;20509;-54
2022/04/24 09:00:43;;;;;;;0.40;0.30;;;;;;;28.82;31.55;94838.97;5132813;27;20967;-54
2022/04/24 09:03:12;;;;;;;1.10;1.00;;;;;;;28.58;32.40;94888.91;5132754;27;20460;-53
2022/04/24 09:05:41;;;;;;;0.40;0.30;;;;;;;28.16;33.48;94885.09;5133135;27;20435;-54
2022/04/24 09:08:11;;;;;;;0.50;0.50;;;;;;;28.18;31.42;94843.84;5132851;27;20853;-54
2022/04/24 09:11:00;;;;;;;0.80;0.50;;;;;;;27.51;31.53;94882.75;5132408;27;20577;-54
2022/04/24 09:14:14;;;;;;;0.50;0.50;;;;;;;27.67;31.72;94868.75;5132961;28;20436;-55
2022/04/24 09:16:33;;;;;;;0.57;0.57;;;;;;;27.91;31.46;94878.88;5132489;28;20517;-54
2022/04/24 09:19:01;;;;;;;0.40;0.30;;;;;;;29.03;29.92;94866.16;5132655;28;20780;-54
2022/04/24 09:21:31;;;;;;;0.40;0.40;;;;;;;30.00;28.57;94855.00;5132424;28;20461;-54
2022/04/24 09:24:02;;;;;;;0.50;0.40;;;;;;;29.80;30.09;94834.91;5132513;28;20475;-53
2022/04/24 09:26:31;;;;;;;3.50;1.30;;;;;;;28.75;31.14;94849.91;5132284;28;20423;-53
2022/04/24 09:29:14;;;;;;;0.60;0.50;;;;;;;28.57;29.49;94839.06;5132472;28;20415;-53
2022/04/24 09:31:48;;;;;;;0.40;0.40;;;;;;;29.51;30.27;94841.72;5132353;28;20490;-53
2022/04/24 09:34:18;;;;;;;0.60;0.53;;;;;;;28.23;29.96;94832.53;5132456;28;20499;-54
2022/04/24 09:37:00;;;;;;;1.20;0.63;;;;;;;28.56;30.37;94836.72;5133994;27;20457;-53
2022/04/24 09:39:31;;;;;;;1.80;0.30;;;;;;;27.32;30.55;94836.81;5136721;27;20434;-54
2022/04/24 09:42:04;;;;;;;0.50;0.40;;;;;;;27.08;32.66;94822.00;5136414;27;20437;-53
2022/04/24 09:44:40;;;;;;;1.07;0.97;;;;;;;27.58;31.09;94822.84;5136177;27;21015;-53
2022/04/24 09:47:31;;;;;;;0.40;0.30;;;;;;;27.68;31.09;94819.34;5136080;27;20495;-53
2022/04/24 09:50:02;;;;;;;0.47;0.30;;;;;;;27.44;31.62;94813.91;5136642;27;20866;-53
2022/04/24 09:52:32;;;;;;;0.63;0.60;;;;;;;27.40;31.22;94808.47;5136110;27;21025;-53
2022/04/24 09:55:02;;;;;;;0.63;0.50;;;;;;;28.45;30.26;94776.00;5135989;27;21012;-54
2022/04/24 09:57:32;;;;;;;0.40;0.30;;;;;;;28.44;30.24;94786.13;5136176;27;20418;-54
2022/04/24 10:00:03;;;;;;;1.00;0.97;;;;;;;27.68;31.25;94800.28;5136430;27;20821;-54
2022/04/24 10:02:33;;;;;;;2.67;2.57;;;;;;;27.50;30.91;94738.88;5136118;27;20462;-53
2022/04/24 10:05:04;;;;;;;20.97;0.60;;;;;;;28.79;30.15;94788.72;5136476;27;20415;-53
2022/04/24 10:07:32;;;;;;;0.50;0.40;;;;;;;27.83;30.83;94787.44;5136060;27;20422;-54
2022/04/24 10:10:01;;;;;;;1.47;1.43;;;;;;;28.06;30.34;94803.38;5135994;27;20509;-54
2022/04/24 10:12:31;;;;;;;0.70;0.50;;;;;;;27.28;31.21;94795.22;5136136;27;20490;-54
2022/04/24 10:15:04;;;;;;;4.13;0.40;;;;;;;27.28;30.85;94792.50;5135749;27;20430;-53
2022/04/24 10:17:53;;;;;;;0.40;0.30;;;;;;;28.48;29.75;94783.41;5135997;27;20450;-54
2022/04/24 10:20:38;;;;;;;0.60;0.50;;;;;;;29.52;27.83;94775.75;5135764;27;20425;-54
2022/04/24 10:23:08;;;;;;;1.10;1.03;;;;;;;29.63;27.28;94778.41;5135748;27;20446;-54
2022/04/24 10:25:39;;;;;;;1.70;1.17;;;;;;;29.27;27.90;94774.44;5135824;27;20422;-54
2022/04/24 10:28:12;;;;;;;0.50;0.40;;;;;;;27.94;28.12;94675.72;5135576;27;20984;-52
2022/04/24 10:30:41;;;;;;;1.70;1.60;;;;;;;26.94;30.44;94777.69;5135707;27;20858;-54
2022/04/24 10:33:18;;;;;;;0.50;0.43;;;;;;;26.76;30.84;94783.09;5135888;27;20472;-54
2022/04/24 10:35:51;;;;;;;0.40;0.30;;;;;;;25.47;31.16;94752.16;5135396;27;20471;-53
2022/04/24 10:38:21;;;;;;;0.40;0.30;;;;;;;26.31;30.89;94773.56;5135408;27;20448;-53
2022/04/24 10:41:05;;;;;;;0.60;0.60;;;;;;;27.44;29.18;94762.97;5135440;27;20473;-53
2022/04/24 10:43:40;;;;;;;1.00;0.50;;;;;;;28.26;28.27;94760.88;5134987;27;20470;-53
2022/04/24 10:46:19;;;;;;;1.17;1.07;;;;;;;28.27;28.29;94765.94;5135265;27;20465;-54
2022/04/24 10:48:49;;;;;;;7.20;1.27;;;;;;;28.44;27.61;94753.41;5133832;27;20938;-54
2022/04/24 10:51:29;;;;;;;0.40;0.30;;;;;;;29.69;26.59;94743.25;5135340;27;20558;-54
2022/04/24 10:54:02;;;;;;;1.10;0.57;;;;;;;30.24;26.08;94745.81;5135016;27;20425;-53
2022/04/24 10:56:31;;;;;;;9.50;0.60;;;;;;;29.91;27.21;94758.25;5135053;27;20423;-53
2022/04/24 10:59:10;;;;;;;2.93;1.23;;;;;;;29.97;25.76;94751.97;5135079;27;20521;-54
2022/04/24 11:01:43;;;;;;;0.40;0.37;;;;;;;29.06;27.71;94750.75;5134900;27;20460;-53
2022/04/24 11:04:17;;;;;;;0.40;0.40;;;;;;;29.07;27.27;94737.91;5134858;27;20509;-53
2022/04/24 11:06:54;;;;;;;0.47;0.47;;;;;;;29.33;26.68;94740.03;5134696;27;20437;-54
2022/04/24 11:09:23;;;;;;;0.40;0.30;;;;;;;29.01;26.92;94744.94;5134746;27;20855;-53
2022/04/24 11:12:11;;;;;;;0.80;0.30;;;;;;;28.43;28.27;94751.09;5134763;27;20473;-54
2022/04/24 11:14:40;;;;;;;1.47;0.40;;;;;;;28.97;27.62;94742.22;5134586;27;20920;-54
2022/04/24 11:17:10;;;;;;;0.70;0.50;;;;;;;29.95;27.52;94732.47;5134975;27;20410;-52
2022/04/24 11:19:42;;;;;;;4.47;0.40;;;;;;;29.57;26.87;94739.06;5134841;27;20461;-53
2022/04/24 11:22:12;;;;;;;0.63;0.40;;;;;;;29.12;27.14;94730.03;5134603;27;20406;-53
2022/04/24 11:24:44;;;;;;;0.40;0.30;;;;;;;30.10;27.55;94731.13;5134507;27;20425;-53
2022/04/24 11:27:14;;;;;;;0.87;0.30;;;;;;;29.81;27.48;94729.88;5134708;27;20968;-53
2022/04/24 11:29:44;;;;;;;0.90;0.90;;;;;;;30.01;25.97;94728.09;5134521;27;20430;-53
2022/04/24 11:32:13;;;;;;;0.60;0.60;;;;;;;29.27;26.84;94722.56;5134394;27;20466;-53
2022/04/24 11:34:44;;;;;;;0.50;0.40;;;;;;;29.37;27.27;94721.69;5134808;27;20850;-53
2022/04/24 11:37:12;;;;;;;0.30;0.30;;;;;;;29.30;27.93;94722.50;5134476;27;20994;-53
2022/04/24 11:39:41;;;;;;;0.70;0.30;;;;;;;29.05;27.14;94713.72;5134420;27;20465;-53
2022/04/24 11:42:10;;;;;;;0.40;0.30;;;;;;;29.39;26.56;94719.34;5134602;27;20439;-53